KDHT/DHT METAR and TAF weather

Enter ICAO airport designator
Station Type Date Time Source
KDHT METAR 2021/09/27 07:53 UTC NOAA

KDHT 270753Z AUTO 22007KT 10SM CLR 17/09 A2998 RMK AO2 SLP092 T01720089


Station Type Date Time Source
KDHT Decoded METAR 2021/09/27 07:53 UTC NOAA

DALHART MUNICIPAL AIRPORT, TX, United States (KDHT) 36-01N 102-33W 1217M
Sep 27, 2021 - 03:53 AM EDT / 2021.09.27 0753 UTC
Wind: from the SW (220 degrees) at 8 MPH (7 KT):0
Visibility: 10 mile(s):0
Sky conditions: clear
Temperature: 63.0 F (17.2 C)
Dew Point: 48.0 F (8.9 C)
Relative Humidity: 58%
Pressure (altimeter): 29.98 in. Hg (1015 hPa)
ob: KDHT 270753Z AUTO 22007KT 10SM CLR 17/09 A2998 RMK AO2 SLP092 T01720089
cycle: 8

Station Type Date Time Source
KDHT TAF 2021/09/27 06:42 UTC NOAA

TAF KDHT 270540Z 2706/2806 20010KT P6SM SCT200 WS015/22045KT
FM270900 22011KT P6SM SCT200
FM271800 21018G28KT P6SM BKN100
FM272300 19011KT P6SM BKN100

Example: see airport list